createdAt,value
2019-03-06T00:02:21.899Z,13.50
2019-03-06T00:05:03.462Z,14.58
2019-03-06T00:07:35.707Z,11.57
2019-03-06T00:10:42.412Z,15.80
2019-03-06T00:13:23.981Z,13.10
2019-03-06T00:16:15.615Z,12.18
2019-03-06T00:19:05.331Z,10.82
2019-03-06T00:21:50.844Z,12.13
2019-03-06T00:24:59.237Z,12.88
2019-03-06T00:27:55.775Z,14.73
2019-03-06T00:30:28.990Z,10.68
2019-03-06T00:33:21.124Z,14.70
2019-03-06T00:36:09.551Z,18.50
2019-03-06T00:42:12.234Z,13.72
2019-03-06T00:44:51.165Z,13.62
2019-03-06T00:47:47.055Z,12.43
2019-03-06T00:50:25.129Z,10.93
2019-03-06T00:53:24.593Z,15.10
2019-03-06T00:56:12.740Z,13.20
2019-03-06T00:59:05.826Z,16.10
2019-03-06T01:02:14.625Z,12.03
2019-03-06T01:04:57.847Z,12.90
2019-03-06T01:07:36.785Z,13.43
2019-03-06T01:10:34.934Z,10.55
2019-03-06T01:13:19.451Z,10.55
2019-03-06T01:15:55.849Z,15.25
2019-03-06T01:18:55.738Z,10.70
2019-03-06T01:21:30.314Z,11.25
2019-03-06T01:24:11.557Z,14.20
2019-03-06T01:26:49.357Z,21.48
2019-03-06T01:29:46.274Z,11.08
2019-03-06T01:33:05.215Z,13.62
2019-03-06T01:35:53.621Z,17.48
2019-03-06T01:38:55.091Z,17.30
2019-03-06T01:41:43.434Z,14.10
2019-03-06T01:44:50.073Z,12.75
2019-03-06T01:47:33.232Z,14.75
2019-03-06T01:50:35.740Z,14.07
2019-03-06T01:53:18.743Z,16.30
2019-03-06T01:56:11.776Z,12.53
2019-03-06T01:59:03.280Z,12.88
2019-03-06T02:01:33.623Z,15.95
2019-03-06T02:04:27.768Z,14.45
2019-03-06T02:07:05.523Z,15.83
2019-03-06T02:09:53.927Z,21.70
2019-03-06T02:12:44.815Z,19.62
2019-03-06T02:15:30.457Z,17.05
2019-03-06T02:18:07.196Z,15.90
2019-03-06T02:21:07.751Z,16.87
2019-03-06T02:23:56.837Z,16.45
2019-03-06T02:26:51.886Z,15.83
2019-03-06T02:29:30.289Z,20.52
2019-03-06T02:32:19.183Z,19.65
2019-03-06T02:34:49.243Z,22.10
2019-03-06T02:37:20.876Z,22.80
2019-03-06T02:39:52.842Z,20.55
2019-03-06T02:42:33.486Z,24.35
2019-03-06T02:45:24.677Z,19.55
2019-03-06T02:48:36.504Z,16.85
2019-03-06T02:51:10.977Z,22.15
2019-03-06T02:53:53.781Z,20.77
2019-03-06T02:56:49.124Z,19.12
2019-03-06T02:59:45.699Z,19.55
2019-03-06T03:02:36.361Z,19.40
2019-03-06T03:05:43.041Z,25.80
2019-03-06T03:08:47.231Z,20.95
2019-03-06T03:11:23.573Z,23.67
2019-03-06T03:14:04.621Z,26.12
2019-03-06T03:16:48.585Z,29.23
2019-03-06T03:19:24.801Z,22.27
2019-03-06T03:22:22.447Z,21.80
2019-03-06T03:24:56.053Z,19.73
2019-03-06T03:28:13.834Z,20.20
2019-03-06T03:31:07.272Z,20.68
2019-03-06T03:33:41.481Z,22.98
2019-03-06T03:36:25.987Z,23.98
2019-03-06T03:38:56.512Z,23.10
2019-03-06T03:41:34.703Z,26.37
2019-03-06T03:44:08.607Z,22.73
2019-03-06T03:47:24.146Z,28.55
2019-03-06T03:50:04.798Z,26.57
2019-03-06T03:52:43.050Z,24.55
2019-03-06T03:55:22.698Z,27.02
2019-03-06T03:57:55.786Z,25.75
2019-03-06T04:00:45.298Z,27.17
2019-03-06T04:03:21.271Z,24.92
2019-03-06T04:06:04.055Z,26.90
2019-03-06T04:08:53.479Z,26.68
2019-03-06T04:11:29.659Z,25.97
2019-03-06T04:17:37.234Z,22.90
2019-03-06T04:20:36.429Z,25.37
2019-03-06T06:14:02.157Z,25.40
2019-03-06T06:17:11.205Z,23.40
2019-03-06T06:20:11.026Z,25.10
2019-03-06T06:23:17.942Z,22.70
2019-03-06T06:26:00.745Z,25.77
2019-03-06T06:28:52.981Z,27.30
2019-03-06T06:32:17.640Z,27.02
2019-03-06T06:38:37.581Z,22.40
2019-03-06T06:41:38.074Z,24.37
2019-03-06T06:44:29.183Z,20.82
2019-03-06T06:50:22.788Z,27.75
2019-03-06T06:53:38.456Z,26.35
2019-03-06T06:57:00.045Z,31.85
2019-03-06T07:04:25.197Z,24.07
2019-03-06T07:07:29.333Z,28.50
2019-03-06T07:11:01.160Z,28.40
2019-03-06T07:14:09.790Z,27.13
2019-03-06T07:17:24.447Z,22.90
2019-03-06T07:20:48.364Z,21.20
2019-03-06T07:31:08.670Z,23.18
2019-03-06T07:37:57.361Z,22.85
2019-03-06T07:41:06.686Z,19.87
2019-03-06T11:38:47.278Z,10.05
2019-03-06T11:49:16.806Z,13.13
2019-03-06T11:51:46.571Z,7.80
2019-03-06T11:54:16.338Z,11.43
2019-03-06T11:56:45.986Z,8.95
2019-03-06T11:59:15.889Z,8.13
2019-03-06T12:04:17.416Z,7.75
2019-03-06T12:06:47.006Z,7.75
2019-03-06T12:09:34.039Z,9.05
2019-03-06T12:12:04.740Z,6.20
2019-03-06T12:14:34.725Z,7.72
2019-03-06T12:17:04.507Z,7.08
2019-03-06T12:19:34.358Z,6.22
2019-03-06T12:22:04.063Z,7.37
2019-03-06T12:24:33.844Z,6.85
2019-03-06T12:27:03.586Z,6.87
2019-03-06T12:29:33.227Z,9.20
2019-03-06T12:32:03.244Z,7.80
2019-03-06T12:34:32.998Z,5.65
2019-03-06T12:37:02.811Z,5.97
2019-03-06T12:39:32.609Z,6.60
2019-03-06T12:42:02.291Z,6.42
2019-03-06T12:44:32.124Z,7.30
2019-03-06T12:47:01.992Z,10.43
2019-03-06T12:49:31.773Z,5.83
2019-03-06T12:52:01.556Z,7.10
2019-03-06T12:54:31.343Z,7.60
2019-03-06T12:57:01.114Z,7.70
2019-03-06T12:59:31.354Z,5.67
2019-03-06T13:02:01.098Z,8.48
2019-03-06T13:04:30.706Z,7.95
2019-03-06T13:07:00.430Z,6.08
2019-03-06T13:09:30.237Z,7.87
2019-03-06T13:11:59.935Z,11.00
2019-03-06T13:14:30.589Z,5.45
2019-03-06T13:17:00.311Z,6.05
2019-03-06T13:19:30.075Z,5.62
2019-03-06T13:21:59.805Z,5.45
2019-03-06T13:24:29.489Z,7.30
2019-03-06T13:26:59.371Z,4.30
2019-03-06T13:29:29.171Z,6.28
2019-03-06T13:31:58.931Z,7.60
2019-03-06T13:34:50.380Z,4.50
2019-03-06T13:37:19.621Z,4.53
2019-03-06T13:39:49.464Z,5.22
2019-03-06T13:42:19.300Z,6.62
2019-03-06T13:44:49.693Z,6.95
2019-03-06T13:47:20.663Z,4.05
2019-03-06T13:49:50.738Z,5.00
2019-03-06T13:52:24.141Z,6.53
2019-03-06T13:54:56.364Z,7.25
2019-03-06T13:57:27.554Z,6.00
2019-03-06T13:59:59.408Z,5.33
2019-03-06T14:02:31.710Z,3.35
2019-03-06T14:05:04.621Z,7.92
2019-03-06T14:07:36.228Z,6.28
2019-03-06T14:10:06.546Z,5.53
2019-03-06T14:12:36.223Z,4.95
2019-03-06T14:15:06.870Z,9.60
2019-03-06T14:17:36.492Z,7.67
2019-03-06T14:20:06.804Z,5.30
2019-03-06T14:22:36.511Z,5.75
2019-03-06T14:25:06.447Z,3.95
2019-03-06T14:27:43.616Z,7.53
2019-03-06T14:30:14.766Z,4.10
2019-03-06T14:32:44.404Z,9.98
2019-03-06T14:35:14.457Z,5.62
2019-03-06T14:37:44.202Z,4.17
2019-03-06T14:40:19.139Z,5.87
2019-03-06T14:42:49.932Z,5.87
2019-03-06T14:45:19.724Z,6.83
2019-03-06T14:47:49.909Z,4.92
2019-03-06T14:50:19.628Z,4.22
2019-03-06T14:52:49.674Z,6.58
2019-03-06T14:55:20.781Z,5.17
2019-03-06T14:57:50.461Z,4.35
2019-03-06T15:00:20.243Z,8.85
2019-03-06T15:02:50.467Z,5.40
2019-03-06T15:05:21.812Z,7.85
2019-03-06T15:07:51.455Z,5.67
2019-03-06T15:10:21.270Z,5.33
2019-03-06T15:12:50.952Z,10.00
2019-03-06T15:15:20.685Z,5.80
2019-03-06T15:17:50.492Z,7.10
2019-03-06T15:20:20.200Z,7.47
2019-03-06T15:22:50.393Z,5.00
2019-03-06T15:25:21.095Z,6.12
2019-03-06T15:27:50.732Z,5.17
2019-03-06T15:30:20.623Z,7.60
2019-03-06T15:32:50.495Z,6.90
2019-03-06T15:35:20.310Z,8.38
2019-03-06T15:37:50.066Z,7.25
2019-03-06T15:40:22.369Z,6.00
2019-03-06T15:42:52.045Z,11.53
2019-03-06T15:45:24.758Z,5.03
2019-03-06T15:47:54.800Z,10.70
2019-03-06T15:50:24.684Z,7.95
2019-03-06T15:52:54.512Z,5.15
2019-03-06T15:55:25.846Z,5.47
2019-03-06T15:57:55.562Z,10.13
2019-03-06T16:00:33.195Z,6.70
2019-03-06T16:03:03.646Z,7.17
2019-03-06T16:05:33.681Z,14.30
2019-03-06T16:08:03.696Z,11.45
2019-03-06T16:10:33.480Z,14.40
2019-03-06T16:13:03.628Z,11.63
2019-03-06T16:15:33.388Z,6.80
2019-03-06T16:18:03.894Z,9.68
2019-03-06T16:20:33.773Z,8.03
2019-03-06T16:23:03.327Z,8.13
2019-03-06T16:25:36.740Z,6.20
2019-03-06T16:28:04.484Z,6.85
2019-03-06T16:30:34.110Z,9.48
2019-03-06T16:33:04.004Z,9.00
2019-03-06T16:35:33.718Z,12.33
2019-03-06T16:38:03.418Z,11.90
2019-03-06T16:40:33.232Z,7.65
2019-03-06T16:43:02.946Z,8.35
2019-03-06T16:45:32.589Z,9.60
2019-03-06T16:48:02.266Z,9.20
2019-03-06T16:50:36.904Z,11.20
2019-03-06T16:53:07.925Z,10.28
2019-03-06T16:55:40.042Z,11.00
2019-03-06T16:58:09.813Z,11.97
2019-03-06T17:00:39.482Z,9.35
2019-03-06T17:03:09.337Z,9.53
2019-03-06T17:05:39.318Z,10.95
2019-03-06T17:08:09.578Z,11.93
2019-03-06T17:10:39.526Z,11.78
2019-03-06T17:13:09.362Z,12.10
2019-03-06T17:15:39.037Z,11.85
2019-03-06T17:18:08.980Z,10.30
2019-03-06T17:20:38.671Z,10.30
2019-03-06T17:23:08.562Z,18.70
2019-03-06T17:25:38.171Z,12.98
2019-03-06T17:28:08.319Z,10.30
2019-03-06T19:33:00.880Z,9.33
2019-03-06T19:35:42.801Z,8.83
2019-03-06T19:39:07.834Z,7.00
2019-03-06T19:41:38.667Z,8.88
2019-03-06T19:44:08.279Z,8.70
2019-03-06T19:46:37.998Z,8.20
2019-03-06T19:49:08.664Z,7.83
2019-03-06T19:51:51.254Z,8.28
2019-03-06T19:54:22.506Z,13.53
2019-03-06T19:57:01.003Z,7.50
2019-03-06T19:59:31.461Z,7.60
2019-03-06T20:02:03.474Z,7.00
2019-03-06T20:05:46.877Z,8.43
2019-03-06T20:12:29.408Z,6.28
2019-03-06T20:14:59.740Z,7.65
2019-03-06T20:17:30.173Z,6.80
2019-03-06T20:20:00.374Z,7.53
2019-03-06T20:22:30.182Z,8.43
2019-03-06T20:25:18.328Z,9.65
2019-03-06T20:27:48.143Z,6.80
2019-03-06T20:30:18.834Z,7.45
2019-03-06T20:32:48.930Z,6.83
2019-03-06T20:35:21.863Z,6.17
2019-03-06T20:37:51.774Z,7.83
2019-03-06T20:40:21.727Z,8.88
2019-03-06T20:42:51.437Z,5.65
2019-03-06T20:45:21.290Z,6.85
2019-03-06T20:47:56.024Z,7.95
2019-03-06T20:50:53.981Z,9.33
2019-03-06T20:53:32.674Z,5.83
2019-03-06T20:56:03.142Z,6.50
2019-03-06T20:58:36.741Z,6.53
2019-03-06T21:01:06.972Z,7.37
2019-03-06T21:03:36.804Z,6.53
2019-03-06T21:06:06.469Z,6.90
2019-03-06T21:08:36.745Z,7.67
2019-03-06T21:11:08.703Z,8.13
2019-03-06T21:13:42.205Z,7.40
2019-03-06T21:16:12.789Z,6.22
2019-03-06T21:19:00.671Z,7.20
2019-03-06T21:21:40.047Z,7.85
2019-03-06T21:24:25.505Z,6.08
2019-03-06T21:26:59.083Z,9.80
2019-03-06T21:32:11.093Z,11.08
2019-03-06T21:34:45.535Z,6.40
2019-03-06T21:37:16.120Z,7.05
2019-03-06T21:39:45.981Z,6.87
2019-03-06T21:42:16.055Z,6.65
2019-03-06T21:44:45.871Z,10.82
2019-03-06T21:47:15.909Z,7.28
2019-03-06T21:49:45.890Z,5.17
2019-03-06T21:52:37.047Z,9.25
2019-03-06T21:55:32.599Z,8.45
2019-03-06T21:58:02.936Z,7.85
2019-03-06T22:00:48.715Z,10.78
2019-03-06T22:03:25.147Z,8.05
2019-03-06T22:05:54.879Z,8.10
2019-03-06T22:08:24.650Z,7.20
2019-03-06T22:10:55.844Z,5.33
2019-03-06T22:13:26.290Z,8.88
2019-03-06T22:15:59.218Z,9.00
2019-03-06T22:18:29.868Z,8.00
2019-03-06T22:21:30.913Z,8.30
2019-03-06T22:24:00.686Z,7.92
2019-03-06T22:26:30.854Z,7.65
2019-03-06T22:29:01.924Z,7.28
2019-03-06T22:31:52.339Z,11.50
2019-03-06T22:34:22.873Z,6.00
2019-03-06T22:36:52.936Z,7.62
2019-03-06T22:39:23.106Z,9.08
2019-03-06T22:42:08.578Z,6.75
2019-03-06T22:48:02.951Z,6.12
2019-03-06T22:50:59.570Z,8.23
2019-03-06T22:53:41.247Z,12.45
2019-03-06T22:56:11.333Z,6.83
2019-03-06T22:59:38.297Z,8.40
2019-03-06T23:03:00.149Z,8.63
2019-03-06T23:05:40.762Z,7.65
2019-03-06T23:08:10.684Z,7.45
2019-03-06T23:10:40.414Z,8.95
2019-03-06T23:13:10.079Z,9.83
